Ana Sayfa
METAR-TAF:

METAR-TAF

Havaalanları :

Sherbrooke, Quebec, Kanada

Enlem: 45-24N, Boylam: 071-53W, yükseklik: 170 m

Güncel hava durumu gözlemi

Rapor saat 09:00 UTC de 12 dakika önce yapıldı.
Rüzgar doğudan 3 kt
Sıcaklık -2°C
Nem 86%
Basınç 1012 hPa
Görüş mesafesi: 14.5 km
18000 ft yükseklikte az bulutlu

METAR: CYSC 250900Z AUTO 08003KT 9SM FEW180 M02/M04 A2989 RMK SLP132

Saat: 04:12 (09:12 UTC)

Tahmin

Rapor saat 23:38 UTC de 9 saat ve 34 dakika önce yapıldı.
Ayın 25'si saat 00 UTC'den ayın 25'si saat 03 UTC'ye kadar geçerli Tahmin
Rüzgar batıdan 5 kt
Görüş mesafesi: 10 km
25000 ft yükseklikte az bulutlu
Dönüşüyor
ayın 25'si saat 00 UTC'den ayın 25'si saat 02 UTC'ye kadar
Rüzgar değişken yönden 3 kt

TAF: CYSC 242338Z 2500/2503 26005KT P6SM FEW250 BECMG 2500/2502 VRB03KT RMK FCST BASED ON AUTO OBS. NXT FCST WILL BE ISSUED AT 251045Z

4.000'den fazla havaalanı için hava durumu gözlemleri ve tahminleri (METAR ve TAF raporları).

Kullanılabilir istasyonlar harita üzerinde sarı ve kırmızı noktalarla gösterilir.

İstasyonun adını görmek için fareyi noktanın üzerinde gezdirin.

Sonrasında hava gözlem ve tahminlerini görmek için tıklayın.

Haritayı değiştirmek için: yaklaştırmak için siyah artı işaretli yeşil düğmeye ve uzaklaştırmak için de eksi işaretli düğmeye hızla tıklayın; bitişik haritalar için yeşil okları kullanın.


METAR-TAF: